createdAt,value
2022-11-20T00:00:27.735Z,57.65
2022-11-20T00:04:49.394Z,56.15
2022-11-20T00:08:51.858Z,53.00
2022-11-20T00:12:53.514Z,53.80
2022-11-20T00:16:55.441Z,52.67
2022-11-20T00:21:12.322Z,56.47
2022-11-20T00:25:14.381Z,53.20
2022-11-20T00:29:16.332Z,53.17
2022-11-20T00:33:18.419Z,51.95
2022-11-20T00:37:19.998Z,57.10
2022-11-20T00:41:22.665Z,53.78
2022-11-20T00:45:24.359Z,56.08
2022-11-20T00:49:26.265Z,55.50
2022-11-20T00:53:28.325Z,53.67
2022-11-20T00:57:30.433Z,57.35
2022-11-20T01:01:32.209Z,57.50
2022-11-20T01:05:36.320Z,56.95
2022-11-20T01:09:38.064Z,53.75
2022-11-20T01:13:41.866Z,57.00
2022-11-20T01:17:43.481Z,55.05
2022-11-20T01:21:47.396Z,51.88
2022-11-20T01:25:49.009Z,57.03
2022-11-20T01:29:50.917Z,53.97
2022-11-20T01:33:55.370Z,51.67
2022-11-20T01:37:57.251Z,58.10
2022-11-20T01:42:17.488Z,54.25
2022-11-20T01:46:20.557Z,57.03
2022-11-20T01:50:29.785Z,54.42
2022-11-20T01:54:43.268Z,56.65
2022-11-20T01:58:51.338Z,55.55
2022-11-20T02:02:58.639Z,55.60
2022-11-20T02:07:02.146Z,59.88
2022-11-20T02:11:04.512Z,53.00
2022-11-20T02:15:06.573Z,54.72
2022-11-20T02:19:13.976Z,52.42
2022-11-20T02:23:27.594Z,53.33
2022-11-20T02:27:30.033Z,54.92
2022-11-20T02:31:40.926Z,53.00
2022-11-20T02:35:46.462Z,54.83
2022-11-20T02:39:52.337Z,49.53
2022-11-20T02:43:54.228Z,52.58
2022-11-20T02:47:55.979Z,57.22
2022-11-20T02:51:58.237Z,52.40
2022-11-20T02:55:59.929Z,50.75
2022-11-20T03:00:02.148Z,53.03
2022-11-20T03:04:03.934Z,53.85
2022-11-20T03:08:05.991Z,54.30
2022-11-20T03:12:08.065Z,56.13
2022-11-20T03:16:15.781Z,52.33
2022-11-20T03:20:17.412Z,55.35
2022-11-20T03:24:19.387Z,51.78
2022-11-20T03:28:21.044Z,56.00
2022-11-20T03:32:22.934Z,55.67
2022-11-20T03:36:25.703Z,52.92
2022-11-20T03:40:27.611Z,53.42
2022-11-20T03:44:29.242Z,56.05
2022-11-20T03:48:31.603Z,54.15
2022-11-20T03:52:33.258Z,58.75
2022-11-20T03:56:38.318Z,57.55
2022-11-20T04:00:40.008Z,58.17
2022-11-20T04:04:41.968Z,56.28
2022-11-20T04:08:44.148Z,52.92
2022-11-20T04:12:46.294Z,55.72
2022-11-20T04:16:48.437Z,56.05
2022-11-20T04:20:50.352Z,56.10
2022-11-20T04:24:52.004Z,55.10
2022-11-20T04:28:54.475Z,52.22
2022-11-20T04:32:56.084Z,51.55
2022-11-20T04:36:57.930Z,49.22
2022-11-20T04:41:05.731Z,50.15
2022-11-20T04:45:07.909Z,52.15
2022-11-20T04:49:09.708Z,52.95
2022-11-20T04:53:11.859Z,49.70
2022-11-20T04:57:14.757Z,46.13
2022-11-20T05:01:22.935Z,47.88
2022-11-20T05:05:24.942Z,47.47
2022-11-20T05:09:26.867Z,51.13
2022-11-20T05:13:28.661Z,49.67
2022-11-20T05:17:30.704Z,51.33
2022-11-20T05:21:33.409Z,49.40
2022-11-20T05:25:35.324Z,49.40
2022-11-20T05:29:37.106Z,49.70
2022-11-20T05:33:41.926Z,48.05
2022-11-20T05:37:43.531Z,50.45
2022-11-20T05:41:45.472Z,52.00
2022-11-20T05:45:56.602Z,52.50
2022-11-20T05:49:58.510Z,50.60
2022-11-20T05:54:00.201Z,48.13
2022-11-20T05:58:02.156Z,51.70
2022-11-20T06:02:03.791Z,50.17
2022-11-20T06:06:07.356Z,52.70
2022-11-20T06:10:09.558Z,55.78
2022-11-20T06:14:11.446Z,56.35
2022-11-20T06:18:13.083Z,58.88
2022-11-20T06:22:15.014Z,58.35
2022-11-20T06:26:19.066Z,57.67
2022-11-20T06:30:21.083Z,56.60
2022-11-20T06:34:22.686Z,53.25
2022-11-20T06:38:25.863Z,54.72
2022-11-20T06:42:27.491Z,56.58
2022-11-20T06:46:29.373Z,58.38
2022-11-20T06:50:31.020Z,54.75
2022-11-20T06:54:33.123Z,60.40
2022-11-20T06:58:36.281Z,62.67
2022-11-20T07:02:38.300Z,57.95
2022-11-20T07:06:40.058Z,57.17
2022-11-20T07:10:42.149Z,59.92
2022-11-20T07:14:43.770Z,57.10
2022-11-20T07:18:50.178Z,57.10
2022-11-20T07:22:59.242Z,61.33
2022-11-20T07:27:01.478Z,56.38
2022-11-20T07:31:04.136Z,55.88
2022-11-20T07:35:06.512Z,62.20
2022-11-20T07:39:08.154Z,55.35
2022-11-20T07:43:10.143Z,53.72
2022-11-20T07:47:11.761Z,51.08
2022-11-20T07:51:14.496Z,49.15
2022-11-20T07:55:16.444Z,51.17
2022-11-20T07:59:18.574Z,56.42
2022-11-20T08:03:24.642Z,54.63
2022-11-20T08:07:27.450Z,50.73
2022-11-20T08:11:47.912Z,50.88
2022-11-20T08:15:51.789Z,51.33
2022-11-20T08:19:54.058Z,49.63
2022-11-20T08:23:55.916Z,50.90
2022-11-20T08:28:08.994Z,48.10
2022-11-20T08:32:17.968Z,49.53
2022-11-20T08:36:20.586Z,46.50
2022-11-20T08:40:22.466Z,47.17
2022-11-20T08:44:24.896Z,46.75
2022-11-20T08:48:26.804Z,44.90
2022-11-20T08:52:28.393Z,44.20
2022-11-20T08:56:30.674Z,47.30
2022-11-20T09:00:33.496Z,46.53
2022-11-20T09:04:36.241Z,45.70
2022-11-20T09:08:38.441Z,45.45
2022-11-20T09:12:40.312Z,45.83
2022-11-20T09:16:42.160Z,47.95
2022-11-20T09:20:44.342Z,49.45
2022-11-20T09:24:46.062Z,44.80
2022-11-20T09:28:47.978Z,49.10
2022-11-20T09:32:49.917Z,49.33
2022-11-20T09:36:51.839Z,49.50
2022-11-20T09:41:04.118Z,45.38
2022-11-20T09:45:15.316Z,46.92
2022-11-20T09:49:36.477Z,46.72
2022-11-20T09:54:02.976Z,46.28
2022-11-20T09:58:30.540Z,44.92
2022-11-20T10:02:38.514Z,44.72
2022-11-20T10:07:37.019Z,46.08
2022-11-20T10:11:51.172Z,43.80
2022-11-20T10:16:17.779Z,45.03
2022-11-20T10:20:41.800Z,45.40
2022-11-20T10:24:57.561Z,42.40
2022-11-20T10:29:09.100Z,43.22
2022-11-20T10:33:20.662Z,40.50
2022-11-20T10:37:25.848Z,42.00
2022-11-20T10:41:35.871Z,43.75
2022-11-20T10:45:54.105Z,42.80
2022-11-20T10:49:59.177Z,41.97
2022-11-20T10:54:26.919Z,41.90
2022-11-20T10:59:03.452Z,42.92
2022-11-20T11:03:28.375Z,41.13
2022-11-20T11:07:36.191Z,45.58
2022-11-20T11:11:39.272Z,43.92
2022-11-20T11:15:42.172Z,41.00
2022-11-20T11:19:43.911Z,42.75
2022-11-20T11:23:45.782Z,41.53
2022-11-20T11:27:49.087Z,40.88
2022-11-20T11:31:51.076Z,41.85
2022-11-20T11:35:57.939Z,40.65
2022-11-20T11:40:22.829Z,43.67
2022-11-20T11:44:51.011Z,41.95
2022-11-20T11:48:58.418Z,40.30
2022-11-20T11:53:12.115Z,42.20
2022-11-20T11:57:27.488Z,41.00
2022-11-20T12:01:37.822Z,44.28
2022-11-20T12:05:44.904Z,41.97
2022-11-20T12:09:52.835Z,39.55
2022-11-20T12:18:20.735Z,41.83
2022-11-20T12:22:42.418Z,41.53
2022-11-20T12:27:06.202Z,41.45
2022-11-20T12:31:22.266Z,40.00
2022-11-20T12:35:42.923Z,42.45
2022-11-20T12:39:55.058Z,39.75
2022-11-20T12:44:49.583Z,39.30
2022-11-20T12:49:10.019Z,40.97
2022-11-20T12:53:42.006Z,40.28
2022-11-20T12:58:01.677Z,40.30
2022-11-20T13:02:24.326Z,41.97
2022-11-20T13:06:26.867Z,41.50
2022-11-20T13:10:47.568Z,36.42
2022-11-20T13:15:23.825Z,42.03
2022-11-20T13:19:26.543Z,42.88
2022-11-20T13:23:28.915Z,41.65
2022-11-20T13:27:31.982Z,40.40
2022-11-20T13:31:36.123Z,40.35
2022-11-20T13:35:42.899Z,52.20
2022-11-20T13:39:44.612Z,43.13
2022-11-20T13:43:48.878Z,43.30
2022-11-20T13:47:52.227Z,42.10
2022-11-20T13:52:23.371Z,43.80
2022-11-20T13:56:49.940Z,44.03
2022-11-20T14:01:16.631Z,42.40
2022-11-20T14:05:24.178Z,42.78
2022-11-20T14:09:31.885Z,46.47
2022-11-20T14:13:33.615Z,48.60
2022-11-20T14:17:37.622Z,47.50
2022-11-20T14:21:39.257Z,48.53
2022-11-20T14:25:46.044Z,50.78
2022-11-20T14:29:50.612Z,48.75
2022-11-20T14:33:54.911Z,48.78
2022-11-20T14:37:57.699Z,47.88
2022-11-20T14:42:00.096Z,48.17
2022-11-20T14:46:11.330Z,48.63
2022-11-20T14:50:29.644Z,48.10
2022-11-20T14:54:31.702Z,47.85
2022-11-20T14:58:35.055Z,53.10
2022-11-20T15:02:44.269Z,52.20
2022-11-20T15:06:55.446Z,53.00
2022-11-20T15:10:57.901Z,51.15
2022-11-20T15:15:01.177Z,55.95
2022-11-20T15:19:11.207Z,54.05
2022-11-20T15:23:15.724Z,52.85
2022-11-20T15:27:17.719Z,54.47
2022-11-20T15:31:22.882Z,51.58
2022-11-20T15:35:24.491Z,55.80
2022-11-20T15:39:26.461Z,53.55
2022-11-20T15:43:28.181Z,52.40
2022-11-20T15:47:33.660Z,48.50
2022-11-20T15:51:37.199Z,53.53
2022-11-20T15:55:39.158Z,48.78
2022-11-20T15:59:42.586Z,49.95
2022-11-20T16:03:44.740Z,49.80
2022-11-20T16:07:46.396Z,50.97
2022-11-20T16:11:48.285Z,51.58
2022-11-20T16:15:58.086Z,52.85
2022-11-20T16:20:00.020Z,55.67
2022-11-20T16:24:04.066Z,54.88
2022-11-20T16:28:06.726Z,58.30
2022-11-20T16:32:11.024Z,60.42
2022-11-20T16:36:16.280Z,57.50
2022-11-20T16:40:18.306Z,58.08
2022-11-20T16:44:20.248Z,58.33
2022-11-20T16:48:21.990Z,55.58
2022-11-20T16:52:23.876Z,55.05
2022-11-20T16:56:27.580Z,52.88
2022-11-20T17:00:29.870Z,55.10
2022-11-20T17:04:31.557Z,51.42
2022-11-20T17:08:33.526Z,46.75
2022-11-20T17:12:35.208Z,50.05
2022-11-20T17:16:37.636Z,48.42
2022-11-20T17:20:39.358Z,45.85
2022-11-20T17:24:41.328Z,47.13
2022-11-20T17:28:46.686Z,50.90
2022-11-20T17:32:48.637Z,49.17
2022-11-20T17:36:50.394Z,44.83
2022-11-20T17:40:52.482Z,48.30
2022-11-20T17:44:54.211Z,46.33
2022-11-20T17:48:56.546Z,46.50
2022-11-20T17:52:58.380Z,49.05
2022-11-20T17:57:18.702Z,47.10
2022-11-20T18:01:22.226Z,47.75
2022-11-20T18:05:26.248Z,46.45
2022-11-20T18:09:28.382Z,47.97
2022-11-20T18:13:50.232Z,47.72
2022-11-20T18:17:51.977Z,53.95
2022-11-20T18:21:54.056Z,50.17
2022-11-20T18:26:00.410Z,56.30
2022-11-20T18:30:02.468Z,57.30
2022-11-20T18:34:04.518Z,54.65
2022-11-20T18:38:06.231Z,60.95
2022-11-20T18:42:31.328Z,61.13
2022-11-20T18:46:32.989Z,54.63
2022-11-20T18:50:34.969Z,58.67
2022-11-20T18:54:37.002Z,61.03
2022-11-20T18:58:41.165Z,56.50
2022-11-20T19:02:43.547Z,63.42
2022-11-20T19:06:49.456Z,62.55
2022-11-20T19:10:51.509Z,67.25
2022-11-20T19:14:53.507Z,71.28
2022-11-20T19:18:57.267Z,61.55
2022-11-20T19:22:59.566Z,66.97
2022-11-20T19:27:01.808Z,68.93
2022-11-20T19:31:08.617Z,66.32
2022-11-20T19:35:10.395Z,63.72
2022-11-20T19:39:12.903Z,62.92
2022-11-20T19:43:14.701Z,61.33
2022-11-20T19:47:16.916Z,62.88
2022-11-20T19:51:24.174Z,62.20
2022-11-20T19:55:26.853Z,57.17
2022-11-20T19:59:28.558Z,65.38
2022-11-20T20:03:32.163Z,59.92
2022-11-20T20:07:34.085Z,62.75
2022-11-20T20:11:37.245Z,64.38
2022-11-20T20:15:41.999Z,65.85
2022-11-20T20:19:44.193Z,66.03
2022-11-20T20:23:51.228Z,60.63
2022-11-20T20:27:54.091Z,60.40
2022-11-20T20:31:55.876Z,61.60
2022-11-20T20:35:59.295Z,61.47
2022-11-20T20:40:01.044Z,59.03
2022-11-20T20:44:21.368Z,59.00
2022-11-20T20:48:24.693Z,59.10
2022-11-20T20:52:29.315Z,60.67
2022-11-20T20:56:31.067Z,59.45
2022-11-20T21:00:33.182Z,57.40
2022-11-20T21:04:34.850Z,56.05
2022-11-20T21:08:40.380Z,57.22
2022-11-20T21:12:43.080Z,55.13
2022-11-20T21:16:45.180Z,59.03
2022-11-20T21:21:06.303Z,58.95
2022-11-20T21:25:08.276Z,61.65
2022-11-20T21:29:10.099Z,56.75
2022-11-20T21:33:12.624Z,57.92
2022-11-20T21:37:14.209Z,60.03
2022-11-20T21:41:16.797Z,62.28
2022-11-20T21:45:18.456Z,59.03
2022-11-20T21:49:20.504Z,58.28
2022-11-20T21:53:22.267Z,59.05
2022-11-20T21:57:24.415Z,62.60
2022-11-20T22:01:28.809Z,60.17
2022-11-20T22:05:30.909Z,59.85
2022-11-20T22:09:32.563Z,61.58
2022-11-20T22:13:53.379Z,64.28
2022-11-20T22:18:13.444Z,67.95
2022-11-20T22:22:15.419Z,59.63
2022-11-20T22:26:23.302Z,58.85
2022-11-20T22:30:25.449Z,62.13
2022-11-20T22:34:27.515Z,65.45
2022-11-20T22:38:31.429Z,58.42
2022-11-20T22:42:34.559Z,61.00
2022-11-20T22:46:37.729Z,57.60
2022-11-20T22:50:39.298Z,56.40
2022-11-20T22:54:41.185Z,60.03
2022-11-20T22:58:45.216Z,60.60
2022-11-20T23:02:46.832Z,60.60
2022-11-20T23:06:48.764Z,65.28
2022-11-20T23:10:50.502Z,72.22
2022-11-20T23:14:52.390Z,66.63
2022-11-20T23:18:58.871Z,65.38
2022-11-20T23:23:00.879Z,69.50
2022-11-20T23:27:02.869Z,67.50
2022-11-20T23:31:05.521Z,70.90
2022-11-20T23:35:07.890Z,69.90
2022-11-20T23:39:10.012Z,73.00
2022-11-20T23:43:17.711Z,68.45
2022-11-20T23:51:21.406Z,68.15
2022-11-20T23:55:23.296Z,74.55
2022-11-20T23:59:25.757Z,72.18
